Schriever AFB, Colorado
Current Conditions -  °F | °C
As of 5:54 PM on Friday 19 Dec 2014 (Local Time) from KCOS Reporting Station
Broken Clouds Broken Clouds  
Wind Chill: 35°   Ceiling: 25000
Heat Index: 35°   Visibility: 10mi
Dew Point: 14°   Wind: 3mph
Humidity: 42%   Direction: 180°S
Pressure: 30.04"   Gusts: NA
Location:  38.8334°N, 104.82°W
Report Text: KCOS 200054Z 18003KT 10SM FEW160 BKN250 02/M10 A3004 RMK AO2 SLP213 T00171100
Loading
Personal Weather Stations






























Interactive Weather Map New forecast layout! Learn more

10-Day Weather Forecast

Advertisements
Track Severe Weather on mobile